首页
METAR-TAF:

METAR-TAF

机场 :

门多萨, 阿根廷

纬度: 32-50S, 经度: 068-47W, 海拔: 705米

当前天气观测

该预报发布于26分钟前的20:00 UTC
风速7节,风向东北
温度 34°C
湿度 14%
气压 1008 hPa
能见度10公里或以上
1500米以下无云,无积雨云

METAR: SAME 202000Z 05007KT CAVOK 34/03 Q1008

时间: 17:26 (20:26 UTC)

预报

该预报发布于3小时和26分钟前的17:00 UTC
预报有效从20日的 18点(UTC)到 21日的 18点(UTC)
风速10节,风向东南
能见度10公里或以上
少量云层高于4000英尺

TAF: SAME 201700Z 2018/2118 14010KT 9999 FEW040 TX34/2020Z TN19/2110Z

超过4000个机场的气象观测和天气预报(METAR&TAF报告)。

可查询的气象台以黄色和红色小点在地图上表示。

将鼠标移到小点上方,可查看气象台名称。

然后点击查看天气观测和预报。

如需切换地图:点击带黑十字的绿色按钮放大地图;点击带横线的绿色按钮缩小地图;或者点击绿色箭头查看邻近地区的地图。


METAR-TAF: